Time;durP1;ratioP1;P1;durP2;ratioP2;P2;SDS_P1;SDS_P2;PMS_P1;PMS_P2;Temp;Humidity;BMP_temperature;BMP_pressure;BME280_temperature;BME280_humidity;BME280_pressure;Samples;Min_cycle;Max_cycle;Signal;HPM_P1;HPM_P2
2024/01/04 00:00:53;;;;;;;2.80;1.03;;;10.10;99.90;;;;;;5012463;28;20517;-75
2024/01/04 00:03:41;;;;;;;5.73;1.10;;;10.00;99.90;;;;;;5022746;28;20472;-75
2024/01/04 00:06:26;;;;;;;3.50;0.90;;;10.00;99.90;;;;;;5013160;28;20456;-75
2024/01/04 00:09:12;;;;;;;2.50;1.10;;;10.10;99.90;;;;;;5007769;28;20464;-75
2024/01/04 00:11:58;;;;;;;6.00;1.17;;;10.10;99.90;;;;;;5019078;28;20488;-75
2024/01/04 00:14:44;;;;;;;3.37;1.07;;;10.10;99.90;;;;;;5011686;28;20484;-75
2024/01/04 00:17:30;;;;;;;2.90;1.30;;;10.10;99.90;;;;;;5022055;28;20459;-75
2024/01/04 00:20:17;;;;;;;5.50;1.10;;;10.10;99.90;;;;;;5009854;28;20571;-75
2024/01/04 00:23:02;;;;;;;4.17;1.07;;;10.10;99.90;;;;;;5012209;28;20477;-75
2024/01/04 00:25:48;;;;;;;3.17;1.20;;;10.10;99.90;;;;;;5020593;28;20813;-75
2024/01/04 00:28:33;;;;;;;6.17;1.17;;;10.10;99.90;;;;;;5025537;28;20500;-75
2024/01/04 00:31:19;;;;;;;8.67;1.40;;;10.00;99.90;;;;;;5022914;28;20815;-75
2024/01/04 00:34:06;;;;;;;2.50;1.30;;;10.00;99.90;;;;;;5015232;28;20463;-75
2024/01/04 00:36:53;;;;;;;5.37;1.43;;;10.10;99.90;;;;;;5017210;28;20471;-74
2024/01/04 00:39:38;;;;;;;11.80;1.20;;;10.10;99.90;;;;;;5008900;28;20451;-75
2024/01/04 00:42:24;;;;;;;2.60;1.23;;;10.20;99.90;;;;;;5022539;28;20456;-75
2024/01/04 00:45:11;;;;;;;4.67;1.30;;;10.20;99.90;;;;;;5017304;28;20730;-75
2024/01/04 00:47:56;;;;;;;7.30;1.60;;;10.10;99.90;;;;;;5009436;28;21055;-75
2024/01/04 00:50:42;;;;;;;4.50;1.10;;;10.10;99.90;;;;;;5020756;28;20474;-75
2024/01/04 00:53:29;;;;;;;5.77;1.53;;;10.20;99.90;;;;;;5026278;28;20490;-75
2024/01/04 00:56:15;;;;;;;6.83;1.20;;;10.20;99.90;;;;;;5024347;28;20455;-75
2024/01/04 00:59:00;;;;;;;4.13;1.60;;;10.30;99.90;;;;;;5012245;28;20460;-75
2024/01/04 01:01:46;;;;;;;4.83;1.27;;;10.20;99.90;;;;;;5010354;28;21036;-75
2024/01/04 01:04:32;;;;;;;9.77;1.80;;;10.20;99.90;;;;;;5019034;28;20475;-75
2024/01/04 01:07:17;;;;;;;9.30;1.40;;;10.20;99.90;;;;;;5024191;28;20512;-75
2024/01/04 01:10:04;;;;;;;6.50;1.27;;;10.20;99.90;;;;;;5017764;28;20560;-75
2024/01/04 01:12:50;;;;;;;6.50;1.37;;;10.20;99.90;;;;;;5026100;28;20443;-75
2024/01/04 01:15:39;;;;;;;3.43;1.20;;;10.10;99.90;;;;;;5019626;28;20446;-75
2024/01/04 01:18:24;;;;;;;3.20;1.00;;;10.00;99.90;;;;;;5019466;28;20572;-75
2024/01/04 01:21:10;;;;;;;7.23;1.30;;;9.90;99.90;;;;;;5008282;28;20527;-74
2024/01/04 01:23:56;;;;;;;2.30;1.20;;;9.80;99.90;;;;;;5012387;28;20965;-75
2024/01/04 01:26:43;;;;;;;3.37;1.47;;;9.80;99.90;;;;;;5010997;28;20450;-74
2024/01/04 01:29:29;;;;;;;6.53;1.50;;;9.80;99.90;;;;;;5010656;28;20446;-75
2024/01/04 01:32:16;;;;;;;3.70;1.10;;;9.80;99.90;;;;;;5014866;28;20418;-75
2024/01/04 01:35:02;;;;;;;2.67;0.80;;;9.90;99.90;;;;;;5020340;28;20474;-75
2024/01/04 01:37:47;;;;;;;2.10;1.00;;;9.90;99.90;;;;;;5025481;28;20530;-75
2024/01/04 01:40:33;;;;;;;2.13;0.77;;;9.80;99.90;;;;;;5011893;28;20449;-75
2024/01/04 01:43:20;;;;;;;4.50;1.20;;;9.90;99.90;;;;;;5024750;28;20523;-75
2024/01/04 01:46:06;;;;;;;5.00;1.63;;;9.80;99.90;;;;;;5016287;28;20821;-75
2024/01/04 01:48:52;;;;;;;7.80;1.20;;;9.80;99.90;;;;;;5017238;28;20450;-74
2024/01/04 01:51:37;;;;;;;2.40;1.00;;;9.90;99.90;;;;;;5018773;28;20442;-75
2024/01/04 01:54:24;;;;;;;5.50;1.07;;;9.80;99.90;;;;;;5018877;28;20833;-74
2024/01/04 01:57:10;;;;;;;1.40;0.90;;;9.80;99.90;;;;;;5008086;28;20460;-75
2024/01/04 01:59:57;;;;;;;4.37;1.63;;;9.80;99.90;;;;;;5010657;28;20443;-74
2024/01/04 02:02:45;;;;;;;2.30;0.80;;;9.80;99.90;;;;;;5009022;28;20448;-75
2024/01/04 02:05:31;;;;;;;4.00;1.00;;;9.90;99.90;;;;;;5007291;28;20448;-75
2024/01/04 02:08:16;;;;;;;2.80;0.80;;;9.90;99.90;;;;;;5005545;28;20456;-75
2024/01/04 02:11:02;;;;;;;2.37;1.00;;;9.90;99.90;;;;;;5011084;28;20463;-75
2024/01/04 02:13:47;;;;;;;2.10;0.87;;;9.90;99.90;;;;;;5009792;28;20475;-75
2024/01/04 02:16:34;;;;;;;12.00;1.90;;;9.90;99.90;;;;;;5009835;28;20448;-75
2024/01/04 02:19:20;;;;;;;4.53;2.07;;;9.90;99.90;;;;;;5023295;28;20430;-75
2024/01/04 02:22:06;;;;;;;6.20;1.30;;;9.90;99.90;;;;;;5020458;28;20447;-75
2024/01/04 02:24:53;;;;;;;6.13;1.20;;;10.00;99.90;;;;;;5029940;28;20446;-75
2024/01/04 02:27:39;;;;;;;3.50;1.20;;;9.90;99.90;;;;;;5022583;28;20424;-75
2024/01/04 02:30:24;;;;;;;6.70;1.40;;;10.00;99.90;;;;;;5025167;28;20604;-75
2024/01/04 02:33:10;;;;;;;4.57;1.23;;;10.00;99.90;;;;;;5025028;28;20451;-75
2024/01/04 02:35:56;;;;;;;4.70;2.03;;;10.00;99.90;;;;;;5025248;28;20416;-75
2024/01/04 02:38:42;;;;;;;3.53;1.27;;;10.00;99.90;;;;;;5023742;28;20679;-75
2024/01/04 02:41:29;;;;;;;5.87;1.20;;;10.00;99.90;;;;;;5029146;28;20796;-75
2024/01/04 02:44:14;;;;;;;4.67;1.20;;;10.00;99.90;;;;;;5030338;28;20589;-75
2024/01/04 02:47:00;;;;;;;3.90;1.30;;;10.00;99.90;;;;;;5026462;28;20425;-75
2024/01/04 02:49:46;;;;;;;5.20;1.50;;;10.00;99.90;;;;;;5022791;28;20524;-75
2024/01/04 02:52:31;;;;;;;2.00;0.80;;;10.00;99.90;;;;;;5029487;28;20434;-75
2024/01/04 02:55:17;;;;;;;4.43;1.40;;;10.00;99.90;;;;;;5029899;28;20436;-75
2024/01/04 02:58:05;;;;;;;3.27;1.00;;;10.00;99.90;;;;;;5029887;28;20443;-75
2024/01/04 03:00:50;;;;;;;3.23;1.13;;;10.00;99.90;;;;;;5026482;28;20420;-76
2024/01/04 03:03:36;;;;;;;2.90;1.10;;;10.00;99.90;;;;;;5027923;28;20474;-76
2024/01/04 03:06:23;;;;;;;2.40;0.97;;;10.00;99.90;;;;;;5011640;28;20428;-76
2024/01/04 03:09:09;;;;;;;5.33;0.83;;;10.00;99.90;;;;;;5006296;28;20462;-77
2024/01/04 03:11:55;;;;;;;6.27;1.50;;;10.10;99.90;;;;;;5014226;28;20769;-77
2024/01/04 03:14:42;;;;;;;1.60;0.77;;;10.10;99.90;;;;;;5020012;28;20484;-76
2024/01/04 03:17:27;;;;;;;2.43;0.77;;;10.10;99.90;;;;;;5019928;28;20601;-74
2024/01/04 03:20:13;;;;;;;3.37;0.90;;;10.00;99.90;;;;;;5016577;28;20474;-76
2024/01/04 03:22:58;;;;;;;2.00;0.70;;;10.00;99.90;;;;;;5008608;28;20420;-76
2024/01/04 03:25:44;;;;;;;2.93;0.80;;;10.00;99.90;;;;;;5019696;28;20489;-76
2024/01/04 03:28:30;;;;;;;1.80;0.70;;;10.00;99.90;;;;;;5012069;28;20425;-76
2024/01/04 03:31:17;;;;;;;5.20;0.73;;;9.90;99.90;;;;;;5016719;28;20644;-76
2024/01/04 03:34:02;;;;;;;2.87;1.03;;;10.00;99.90;;;;;;5011570;28;21094;-76
2024/01/04 03:36:48;;;;;;;1.73;0.70;;;9.90;99.90;;;;;;5016191;28;20939;-75
2024/01/04 03:39:33;;;;;;;3.77;2.10;;;9.90;99.90;;;;;;5010687;28;20440;-75
2024/01/04 03:42:19;;;;;;;1.87;0.60;;;9.90;99.90;;;;;;5010633;28;20574;-76
2024/01/04 03:45:07;;;;;;;1.70;0.80;;;9.90;99.90;;;;;;5015803;28;20459;-76
2024/01/04 03:47:55;;;;;;;4.17;0.90;;;9.90;99.90;;;;;;5022130;28;20431;-76
2024/01/04 03:50:40;;;;;;;1.87;0.90;;;9.90;99.90;;;;;;5020625;28;20479;-76
2024/01/04 03:53:26;;;;;;;2.23;0.80;;;9.90;99.90;;;;;;5016023;28;20463;-78
2024/01/04 03:56:11;;;;;;;2.70;0.80;;;9.90;99.90;;;;;;5005335;28;20504;-75
2024/01/04 03:58:57;;;;;;;3.13;1.00;;;10.00;99.90;;;;;;5018650;28;20420;-76
2024/01/04 04:01:45;;;;;;;3.23;0.80;;;10.00;99.90;;;;;;5020794;28;20401;-76
2024/01/04 04:04:32;;;;;;;1.70;0.70;;;10.00;99.90;;;;;;5020669;28;20454;-76
2024/01/04 04:07:17;;;;;;;4.93;1.17;;;10.00;99.90;;;;;;5018770;28;20429;-76
2024/01/04 04:10:04;;;;;;;4.33;1.20;;;10.00;99.90;;;;;;5018506;28;20478;-76
2024/01/04 04:12:49;;;;;;;3.20;1.20;;;10.00;99.90;;;;;;5025853;28;20797;-76
2024/01/04 04:15:35;;;;;;;6.70;1.40;;;10.00;99.90;;;;;;5018041;28;21132;-76
2024/01/04 04:18:21;;;;;;;2.40;0.80;;;10.00;99.90;;;;;;5022664;28;20436;-76
2024/01/04 04:21:07;;;;;;;2.23;0.90;;;9.90;99.90;;;;;;5018594;28;20428;-76
2024/01/04 04:23:53;;;;;;;4.03;0.90;;;9.90;99.90;;;;;;5033424;28;20443;-76
2024/01/04 04:26:39;;;;;;;2.80;1.10;;;10.00;99.90;;;;;;5032663;28;20434;-76
2024/01/04 04:29:24;;;;;;;7.30;1.17;;;10.00;99.90;;;;;;5019768;28;20495;-77
2024/01/04 04:32:10;;;;;;;4.53;1.00;;;9.90;99.90;;;;;;5033449;28;20789;-76
2024/01/04 04:34:56;;;;;;;2.53;0.77;;;9.90;99.90;;;;;;5010931;28;20602;-76
2024/01/04 04:37:43;;;;;;;1.73;0.70;;;10.00;99.90;;;;;;5033708;28;20438;-76
2024/01/04 04:40:28;;;;;;;3.43;0.77;;;10.00;99.90;;;;;;5017914;28;20441;-75
2024/01/04 04:43:14;;;;;;;7.03;1.10;;;10.10;99.90;;;;;;5025319;28;20447;-76
2024/01/04 04:46:01;;;;;;;1.93;0.73;;;10.00;99.90;;;;;;5026264;28;20439;-76
2024/01/04 04:48:46;;;;;;;2.80;1.17;;;10.00;99.90;;;;;;5015305;28;20454;-76
2024/01/04 04:51:32;;;;;;;3.20;0.70;;;10.00;99.90;;;;;;5014700;28;20478;-75
2024/01/04 04:54:19;;;;;;;1.67;0.80;;;10.00;99.90;;;;;;5027828;28;20555;-75
2024/01/04 04:57:05;;;;;;;2.43;0.90;;;10.10;99.90;;;;;;5012058;28;20506;-76
2024/01/04 04:59:51;;;;;;;2.33;0.90;;;10.10;99.90;;;;;;5022053;28;20705;-76
2024/01/04 05:02:36;;;;;;;5.43;1.23;;;10.10;99.90;;;;;;5019617;28;20919;-76
2024/01/04 05:05:22;;;;;;;3.03;1.20;;;10.10;99.90;;;;;;5032777;28;20432;-76
2024/01/04 05:08:08;;;;;;;2.80;0.90;;;10.10;99.90;;;;;;5020938;28;20503;-76
2024/01/04 05:10:55;;;;;;;2.53;1.23;;;10.00;99.90;;;;;;5024420;28;21123;-76
2024/01/04 05:13:41;;;;;;;2.27;0.90;;;10.00;99.90;;;;;;5022697;28;20454;-77
2024/01/04 05:16:27;;;;;;;3.57;1.10;;;10.10;99.90;;;;;;5028112;28;20427;-75
2024/01/04 05:19:12;;;;;;;2.60;0.97;;;10.00;99.90;;;;;;5011048;28;20526;-76
2024/01/04 05:21:58;;;;;;;1.60;0.73;;;10.00;99.90;;;;;;5023141;28;20475;-76
2024/01/04 05:24:44;;;;;;;1.90;0.90;;;10.10;99.90;;;;;;5021370;28;20452;-77
2024/01/04 05:27:31;;;;;;;3.50;0.80;;;10.00;99.90;;;;;;5024471;28;20514;-76
2024/01/04 05:30:16;;;;;;;3.97;0.93;;;10.10;99.90;;;;;;5016228;28;20427;-77
2024/01/04 05:33:03;;;;;;;3.30;0.90;;;10.10;99.90;;;;;;5024477;28;20423;-77
2024/01/04 05:35:50;;;;;;;1.93;0.80;;;10.10;99.90;;;;;;5014405;28;20432;-76
2024/01/04 05:38:35;;;;;;;4.17;0.80;;;10.10;99.90;;;;;;5029471;28;20431;-76
2024/01/04 05:41:21;;;;;;;3.60;1.00;;;10.10;99.90;;;;;;5023999;28;20943;-76
2024/01/04 05:44:08;;;;;;;3.30;1.27;;;10.10;99.90;;;;;;5019799;28;20456;-76
2024/01/04 05:46:54;;;;;;;2.17;0.87;;;10.10;99.90;;;;;;5029562;28;20436;-76
2024/01/04 05:49:40;;;;;;;1.50;0.80;;;10.10;99.90;;;;;;5015205;28;21171;-76
2024/01/04 05:52:25;;;;;;;2.93;0.97;;;10.10;99.90;;;;;;5022999;28;20572;-76
2024/01/04 05:55:11;;;;;;;1.70;1.00;;;10.10;99.90;;;;;;5017257;28;20545;-76
2024/01/04 05:57:57;;;;;;;4.27;0.83;;;10.10;99.90;;;;;;5015724;28;20424;-77
2024/01/04 06:00:44;;;;;;;2.33;1.00;;;10.10;99.90;;;;;;5014537;28;20423;-77
2024/01/04 06:03:29;;;;;;;2.03;0.87;;;10.00;99.90;;;;;;5029308;28;20526;-76
2024/01/04 06:06:15;;;;;;;2.87;0.80;;;10.00;99.90;;;;;;5017442;28;20444;-76
2024/01/04 06:09:03;;;;;;;2.67;0.83;;;10.10;99.90;;;;;;5009372;28;20510;-76
2024/01/04 06:11:50;;;;;;;1.57;0.60;;;10.10;99.90;;;;;;5019926;28;20475;-76
2024/01/04 06:14:36;;;;;;;3.37;1.07;;;10.00;99.90;;;;;;5023591;28;20463;-76
2024/01/04 06:17:24;;;;;;;4.17;0.80;;;10.10;99.90;;;;;;5024451;28;20556;-76
2024/01/04 06:20:10;;;;;;;4.07;1.00;;;10.10;99.90;;;;;;5012361;28;20943;-76
2024/01/04 06:22:55;;;;;;;2.00;0.73;;;10.00;99.90;;;;;;5023862;28;20499;-76
2024/01/04 06:25:41;;;;;;;2.90;0.87;;;10.00;99.90;;;;;;5018607;28;20510;-77
2024/01/04 06:28:27;;;;;;;4.20;1.53;;;10.00;99.90;;;;;;5023207;28;20800;-76
2024/01/04 06:31:13;;;;;;;3.10;1.30;;;9.90;99.90;;;;;;5016088;28;20463;-76
2024/01/04 06:33:59;;;;;;;4.20;0.90;;;10.00;99.90;;;;;;5026674;28;20444;-76
2024/01/04 06:36:45;;;;;;;2.80;0.90;;;10.00;99.90;;;;;;5025390;28;20427;-76
2024/01/04 06:39:30;;;;;;;3.20;1.00;;;10.00;99.90;;;;;;5018959;28;20426;-76
2024/01/04 06:42:16;;;;;;;7.63;0.90;;;10.00;99.90;;;;;;5015215;28;20440;-77
2024/01/04 06:45:02;;;;;;;3.47;1.70;;;10.00;99.90;;;;;;5016336;28;20546;-77
2024/01/04 06:47:48;;;;;;;3.70;1.13;;;10.00;99.90;;;;;;5021566;28;20453;-76
2024/01/04 06:50:35;;;;;;;1.93;0.80;;;10.00;99.90;;;;;;5011190;28;20436;-76
2024/01/04 06:53:20;;;;;;;3.67;1.70;;;10.10;99.90;;;;;;5014567;28;20458;-76
2024/01/04 06:56:06;;;;;;;1.80;1.10;;;9.90;99.90;;;;;;5021954;28;20432;-77
2024/01/04 06:58:52;;;;;;;3.17;0.97;;;9.90;99.90;;;;;;5018106;28;20491;-75
2024/01/04 07:01:37;;;;;;;2.90;1.50;;;10.00;99.90;;;;;;5016646;28;20427;-76
2024/01/04 07:04:23;;;;;;;2.90;1.47;;;10.10;99.90;;;;;;5011922;28;20464;-76
2024/01/04 07:07:10;;;;;;;4.40;1.60;;;10.10;99.90;;;;;;5021413;28;20567;-76
2024/01/04 07:09:56;;;;;;;5.90;2.90;;;10.10;99.90;;;;;;5014816;28;20478;-75
2024/01/04 07:12:43;;;;;;;3.13;1.40;;;10.10;99.90;;;;;;5018334;28;20503;-74
2024/01/04 07:15:28;;;;;;;4.83;1.57;;;10.10;99.90;;;;;;5024120;28;20434;-75
2024/01/04 07:18:14;;;;;;;5.53;2.03;;;10.10;99.90;;;;;;5023912;28;20443;-75
2024/01/04 07:21:00;;;;;;;6.60;1.50;;;10.10;99.90;;;;;;5024050;28;20801;-75
2024/01/04 07:23:47;;;;;;;3.20;1.03;;;10.10;99.90;;;;;;5019243;28;20591;-76
2024/01/04 07:26:32;;;;;;;3.80;1.60;;;10.10;99.90;;;;;;5021554;28;20437;-75
2024/01/04 07:29:18;;;;;;;6.80;3.77;;;10.10;99.90;;;;;;5006629;28;20432;-75
2024/01/04 07:32:04;;;;;;;6.60;3.03;;;10.00;99.90;;;;;;5027302;28;20484;-76
2024/01/04 07:34:50;;;;;;;2.27;1.10;;;9.90;99.90;;;;;;5020814;28;20456;-76
2024/01/04 07:37:36;;;;;;;4.93;1.60;;;9.90;99.90;;;;;;5026597;28;20574;-76
2024/01/04 07:40:23;;;;;;;4.00;2.07;;;9.80;99.90;;;;;;5028275;28;20813;-77
2024/01/04 07:43:09;;;;;;;4.63;1.60;;;9.80;99.90;;;;;;5015168;28;20807;-76
2024/01/04 07:45:54;;;;;;;5.97;1.77;;;9.90;99.90;;;;;;5018529;28;20428;-76
2024/01/04 07:48:40;;;;;;;3.60;1.80;;;9.90;99.90;;;;;;5021928;28;20444;-75
2024/01/04 07:51:26;;;;;;;7.07;1.87;;;9.80;99.90;;;;;;5014161;28;20825;-76
2024/01/04 07:54:12;;;;;;;7.53;3.00;;;9.80;99.90;;;;;;5014642;28;20637;-76
2024/01/04 07:56:59;;;;;;;5.87;2.03;;;9.80;99.90;;;;;;5019745;28;20447;-76
2024/01/04 07:59:44;;;;;;;3.40;1.40;;;9.80;99.90;;;;;;5021290;28;20926;-75
2024/01/04 08:02:32;;;;;;;6.43;1.90;;;9.80;99.90;;;;;;5024025;28;20994;-75
2024/01/04 08:05:18;;;;;;;4.20;1.07;;;9.80;99.90;;;;;;5021109;28;20571;-76
2024/01/04 08:08:04;;;;;;;16.90;4.20;;;9.80;99.90;;;;;;5025268;28;20418;-77
2024/01/04 08:10:50;;;;;;;3.97;1.83;;;9.80;99.90;;;;;;5026121;28;20941;-75
2024/01/04 08:13:37;;;;;;;9.57;4.43;;;9.80;99.90;;;;;;5025630;28;20466;-75
2024/01/04 08:16:22;;;;;;;8.50;3.33;;;9.60;99.90;;;;;;5034042;28;20427;-77
2024/01/04 08:19:08;;;;;;;5.77;3.10;;;9.60;99.90;;;;;;5022990;28;20926;-76
2024/01/04 08:21:54;;;;;;;3.13;1.13;;;9.60;99.90;;;;;;5025691;28;21074;-76
2024/01/04 08:24:42;;;;;;;5.83;1.67;;;9.50;99.90;;;;;;5027189;28;20456;-76
2024/01/04 08:27:27;;;;;;;4.93;2.13;;;9.40;99.90;;;;;;5019725;28;20432;-76
2024/01/04 08:30:14;;;;;;;5.80;1.53;;;9.40;99.90;;;;;;5011042;28;20794;-76
2024/01/04 08:33:00;;;;;;;7.03;1.87;;;9.40;99.90;;;;;;5021319;28;20479;-76
2024/01/04 08:35:45;;;;;;;7.07;2.20;;;9.40;99.90;;;;;;5025086;28;20512;-76
2024/01/04 08:38:31;;;;;;;15.30;4.10;;;9.40;99.90;;;;;;5019334;28;20436;-76
2024/01/04 08:41:16;;;;;;;10.60;3.80;;;9.40;99.90;;;;;;5011589;28;20658;-77
2024/01/04 08:44:02;;;;;;;4.20;2.13;;;9.30;99.90;;;;;;5018985;28;20580;-76
2024/01/04 08:46:50;;;;;;;5.80;1.80;;;9.30;99.90;;;;;;5016602;28;20806;-75
2024/01/04 08:49:35;;;;;;;8.50;2.20;;;9.30;99.90;;;;;;5029867;28;20442;-75
2024/01/04 08:52:21;;;;;;;4.73;1.97;;;9.20;99.90;;;;;;5026507;28;20474;-77
2024/01/04 08:55:07;;;;;;;12.27;2.53;;;9.30;99.90;;;;;;5027509;28;21005;-75
2024/01/04 08:57:53;;;;;;;12.77;2.33;;;9.30;99.90;;;;;;5021916;28;20513;-76
2024/01/04 09:00:39;;;;;;;11.00;3.67;;;9.30;99.90;;;;;;5017961;28;20751;-75
2024/01/04 09:03:26;;;;;;;10.20;2.63;;;9.40;99.90;;;;;;5017856;28;20454;-76
2024/01/04 09:06:12;;;;;;;4.07;1.43;;;9.40;99.90;;;;;;5022093;28;20427;-77
2024/01/04 09:08:59;;;;;;;6.53;2.23;;;9.40;99.90;;;;;;5024745;28;20917;-76
2024/01/04 09:11:48;;;;;;;4.63;2.03;;;9.50;99.90;;;;;;5013391;28;20483;-75
2024/01/04 09:14:33;;;;;;;5.37;2.30;;;9.50;99.90;;;;;;5021535;28;20522;-76
2024/01/04 09:17:19;;;;;;;10.27;2.47;;;9.50;99.90;;;;;;5006757;28;20432;-75
2024/01/04 09:20:08;;;;;;;10.23;1.87;;;9.40;99.90;;;;;;5018273;28;20793;-76
2024/01/04 09:22:54;;;;;;;12.17;2.40;;;9.50;99.90;;;;;;5022130;28;20418;-76
2024/01/04 09:25:40;;;;;;;8.40;2.27;;;9.50;99.90;;;;;;5022576;28;20440;-76
2024/01/04 09:28:26;;;;;;;8.33;1.77;;;9.50;99.90;;;;;;5017466;28;20474;-75
2024/01/04 09:31:12;;;;;;;13.33;2.63;;;9.50;99.90;;;;;;5021321;28;20427;-75
2024/01/04 09:33:58;;;;;;;12.23;2.53;;;9.50;99.90;;;;;;5021417;28;20464;-76
2024/01/04 09:36:45;;;;;;;12.17;3.00;;;9.50;99.90;;;;;;5024826;28;20438;-76
2024/01/04 09:39:31;;;;;;;8.33;2.83;;;9.50;99.90;;;;;;5023637;28;20427;-75
2024/01/04 09:42:18;;;;;;;12.83;3.07;;;9.50;99.90;;;;;;5016081;28;20537;-76
2024/01/04 09:45:07;;;;;;;11.80;2.60;;;9.50;99.90;;;;;;5022336;28;20527;-75
2024/01/04 09:47:56;;;;;;;10.80;2.10;;;9.50;99.90;;;;;;5018026;28;20471;-76
2024/01/04 09:50:42;;;;;;;11.60;2.53;;;9.50;99.90;;;;;;5021927;28;20437;-76
2024/01/04 09:53:30;;;;;;;10.57;2.37;;;9.50;99.90;;;;;;5025210;28;20486;-76
2024/01/04 09:56:17;;;;;;;8.87;2.53;;;9.50;99.90;;;;;;5024216;28;20418;-76
2024/01/04 09:59:03;;;;;;;8.23;1.93;;;9.50;99.90;;;;;;5012353;28;20447;-75
2024/01/04 10:01:49;;;;;;;14.70;2.60;;;9.50;99.90;;;;;;5017175;28;20438;-76
2024/01/04 10:04:35;;;;;;;12.80;2.30;;;9.50;99.90;;;;;;5015829;28;20450;-76
2024/01/04 10:07:24;;;;;;;8.30;2.20;;;9.60;99.90;;;;;;5018009;28;20555;-76
2024/01/04 10:10:18;;;;;;;9.67;2.57;;;9.60;99.90;;;;;;5020731;28;20426;-76
2024/01/04 10:13:05;;;;;;;4.33;1.90;;;9.60;99.90;;;;;;5019000;28;20470;-75
2024/01/04 10:15:52;;;;;;;8.37;2.00;;;9.60;99.90;;;;;;5015837;28;20444;-75
2024/01/04 10:18:37;;;;;;;13.17;3.07;;;9.60;99.90;;;;;;5025259;28;20462;-76
2024/01/04 10:21:23;;;;;;;7.50;1.93;;;9.60;99.90;;;;;;5018900;28;20537;-77
2024/01/04 10:24:10;;;;;;;6.27;1.70;;;9.60;99.90;;;;;;5021404;28;20455;-76
2024/01/04 10:26:58;;;;;;;13.80;3.00;;;9.60;99.90;;;;;;5020801;28;20423;-76
2024/01/04 10:29:50;;;;;;;8.93;2.33;;;9.50;99.90;;;;;;5024811;28;20966;-76
2024/01/04 10:32:36;;;;;;;8.30;1.90;;;9.50;99.90;;;;;;5019286;28;20997;-75
2024/01/04 10:35:27;;;;;;;9.93;2.20;;;9.40;99.90;;;;;;5011161;28;20499;-75
2024/01/04 10:38:13;;;;;;;12.13;1.83;;;9.50;99.90;;;;;;5022554;28;20435;-76
2024/01/04 10:41:01;;;;;;;11.60;2.40;;;9.50;99.90;;;;;;5027858;28;21007;-76
2024/01/04 10:43:48;;;;;;;10.43;2.20;;;9.50;99.90;;;;;;5015922;28;20563;-76
2024/01/04 10:46:35;;;;;;;10.50;2.60;;;9.50;99.90;;;;;;5014256;28;20425;-75
2024/01/04 10:49:22;;;;;;;9.00;1.70;;;9.50;99.90;;;;;;5016559;28;20882;-76
2024/01/04 10:52:14;;;;;;;8.80;2.60;;;9.60;99.90;;;;;;5023458;28;20474;-77
2024/01/04 10:55:01;;;;;;;6.83;2.13;;;9.60;99.90;;;;;;5046228;22;20491;-74
2024/01/04 10:57:46;;;;;;;11.90;2.20;;;9.60;99.90;;;;;;5026047;28;21376;-74
2024/01/04 11:00:33;;;;;;;8.10;2.57;;;9.60;99.90;;;;;;5018709;28;20442;-74
2024/01/04 11:03:20;;;;;;;10.27;2.00;;;9.60;99.90;;;;;;5026488;28;20522;-74
2024/01/04 11:06:06;;;;;;;13.83;2.10;;;9.70;99.90;;;;;;5013490;28;20451;-74
2024/01/04 11:08:55;;;;;;;7.77;1.67;;;9.70;99.90;;;;;;5010169;28;20827;-74
2024/01/04 11:11:41;;;;;;;14.17;3.23;;;9.80;99.90;;;;;;5018901;28;20431;-74
2024/01/04 11:14:27;;;;;;;14.50;2.70;;;9.80;99.90;;;;;;5010799;28;20584;-74
2024/01/04 11:17:40;;;;;;;8.00;2.20;;;9.80;99.90;;;;;;5022335;28;20435;-74
2024/01/04 11:20:42;;;;;;;7.30;1.80;;;9.80;99.90;;;;;;5014474;28;20552;-74
2024/01/04 11:23:46;;;;;;;14.57;2.70;;;9.90;99.90;;;;;;5014289;28;20417;-74
2024/01/04 11:26:42;;;;;;;8.13;3.13;;;9.90;99.90;;;;;;5017665;28;20455;-74
2024/01/04 11:29:28;;;;;;;16.30;2.50;;;9.80;99.90;;;;;;5013359;28;20436;-74
2024/01/04 11:32:15;;;;;;;6.73;2.70;;;9.80;99.90;;;;;;5010527;28;20970;-74
2024/01/04 11:35:03;;;;;;;9.73;2.10;;;9.90;99.90;;;;;;5007433;28;20556;-74
2024/01/04 11:37:52;;;;;;;10.70;2.30;;;9.90;99.90;;;;;;5024828;28;20433;-74
2024/01/04 11:40:38;;;;;;;11.80;2.30;;;9.80;99.90;;;;;;5014094;28;20415;-74
2024/01/04 11:43:34;;;;;;;11.60;2.03;;;9.80;99.90;;;;;;5015111;28;20428;-74
2024/01/04 11:46:22;;;;;;;12.00;1.87;;;9.90;99.90;;;;;;5014931;28;20433;-74
2024/01/04 11:49:07;;;;;;;11.07;1.83;;;9.80;99.90;;;;;;5007764;28;20793;-74
2024/01/04 11:52:03;;;;;;;14.23;2.73;;;9.80;99.90;;;;;;5017935;28;20506;-74
2024/01/04 11:54:49;;;;;;;6.80;1.87;;;9.80;99.90;;;;;;5024432;28;20467;-74
2024/01/04 11:57:34;;;;;;;7.00;2.63;;;10.00;99.90;;;;;;5015243;28;20796;-74
2024/01/04 12:00:21;;;;;;;10.87;2.20;;;9.90;99.90;;;;;;5022423;28;20433;-74
2024/01/04 12:03:13;;;;;;;11.10;2.00;;;9.90;99.90;;;;;;5015593;28;20424;-74
2024/01/04 12:06:00;;;;;;;9.30;1.70;;;9.90;99.90;;;;;;5015797;28;20510;-74
2024/01/04 12:08:49;;;;;;;4.43;1.60;;;9.90;99.90;;;;;;5020501;28;20435;-74
2024/01/04 12:11:36;;;;;;;11.10;1.90;;;9.80;99.90;;;;;;5022707;28;20437;-74
2024/01/04 12:14:22;;;;;;;5.37;1.50;;;9.80;99.90;;;;;;5015225;28;20447;-74
2024/01/04 12:17:08;;;;;;;9.13;1.97;;;9.90;99.90;;;;;;5013770;28;20428;-74
2024/01/04 12:19:53;;;;;;;6.80;1.40;;;9.80;99.90;;;;;;5014262;28;21087;-74
2024/01/04 12:22:39;;;;;;;11.87;2.20;;;9.90;99.90;;;;;;5017645;28;20495;-74
2024/01/04 12:25:27;;;;;;;6.10;1.73;;;9.90;99.90;;;;;;5014587;28;20472;-74
2024/01/04 12:28:13;;;;;;;9.27;2.00;;;9.80;99.90;;;;;;5011827;28;20970;-74
2024/01/04 12:30:59;;;;;;;5.03;1.97;;;9.80;99.90;;;;;;5015577;28;20473;-74
2024/01/04 12:33:46;;;;;;;3.43;1.40;;;9.90;99.90;;;;;;5020427;28;20485;-74
2024/01/04 12:36:32;;;;;;;6.97;1.60;;;9.90;99.90;;;;;;5017242;28;20579;-73
2024/01/04 12:39:18;;;;;;;6.30;1.93;;;9.90;99.90;;;;;;5009986;28;20443;-74
2024/01/04 12:42:05;;;;;;;6.83;1.90;;;10.00;99.90;;;;;;5018034;28;20550;-74
2024/01/04 12:44:51;;;;;;;7.50;2.07;;;10.00;99.90;;;;;;5022443;28;20471;-74
2024/01/04 12:47:37;;;;;;;3.73;1.33;;;10.00;99.90;;;;;;5026664;28;20437;-74
2024/01/04 12:50:24;;;;;;;8.30;1.80;;;10.10;99.90;;;;;;5019877;28;20465;-74
2024/01/04 12:53:10;;;;;;;5.20;1.53;;;10.10;99.90;;;;;;5025312;28;20840;-76
2024/01/04 12:55:56;;;;;;;8.23;1.70;;;10.10;99.90;;;;;;5021420;28;20446;-74
2024/01/04 12:58:45;;;;;;;4.03;1.40;;;10.00;99.90;;;;;;5023172;28;20804;-74
2024/01/04 13:01:30;;;;;;;6.90;1.63;;;10.00;99.90;;;;;;5027651;28;20499;-74
2024/01/04 13:04:16;;;;;;;11.03;2.30;;;10.00;99.90;;;;;;5029489;28;20467;-74
2024/01/04 13:07:02;;;;;;;7.50;1.90;;;10.00;99.90;;;;;;5015207;28;20825;-74
2024/01/04 13:09:47;;;;;;;10.30;2.07;;;10.00;99.90;;;;;;5021670;28;20447;-74
2024/01/04 13:12:33;;;;;;;7.40;1.93;;;9.90;99.90;;;;;;5027947;28;20444;-73
2024/01/04 13:15:20;;;;;;;11.00;2.53;;;9.80;99.90;;;;;;5018530;28;20467;-74
2024/01/04 13:18:05;;;;;;;14.67;3.33;;;9.80;99.90;;;;;;5010691;28;20491;-74
2024/01/04 13:20:51;;;;;;;9.87;2.13;;;9.80;99.90;;;;;;5023080;28;20434;-74
2024/01/04 13:23:37;;;;;;;11.60;2.93;;;9.80;99.90;;;;;;5015512;28;20470;-74
2024/01/04 13:26:22;;;;;;;6.20;2.33;;;9.80;99.90;;;;;;5014464;28;20449;-74
2024/01/04 13:29:08;;;;;;;10.07;3.03;;;9.70;99.90;;;;;;5020121;28;20574;-74
2024/01/04 13:31:55;;;;;;;10.50;2.60;;;9.70;99.90;;;;;;5025037;28;20431;-74
2024/01/04 13:34:40;;;;;;;7.80;2.10;;;9.70;99.90;;;;;;5014660;28;20480;-74
2024/01/04 13:37:26;;;;;;;5.67;1.80;;;9.80;99.90;;;;;;5015361;28;20538;-74
2024/01/04 13:40:12;;;;;;;8.40;1.90;;;9.80;99.90;;;;;;5015947;28;21018;-74
2024/01/04 13:42:58;;;;;;;16.00;2.40;;;9.80;99.90;;;;;;5017974;28;20537;-74
2024/01/04 13:45:44;;;;;;;9.43;3.57;;;9.80;99.90;;;;;;5014935;28;20453;-74
2024/01/04 13:48:31;;;;;;;14.53;2.70;;;9.80;99.90;;;;;;5016964;28;20428;-74
2024/01/04 13:51:17;;;;;;;4.90;2.53;;;9.80;99.90;;;;;;5019977;28;20823;-74
2024/01/04 13:54:03;;;;;;;13.00;2.50;;;9.90;99.90;;;;;;5016709;28;20479;-74
2024/01/04 13:56:48;;;;;;;9.10;2.13;;;9.90;99.90;;;;;;5022127;28;20443;-74
2024/01/04 13:59:34;;;;;;;16.30;3.00;;;9.90;99.90;;;;;;5021330;28;20942;-74
2024/01/04 14:02:20;;;;;;;7.50;2.27;;;9.90;99.90;;;;;;5027119;28;20815;-74
2024/01/04 14:05:08;;;;;;;14.67;2.47;;;9.90;99.90;;;;;;5022313;28;20502;-74
2024/01/04 14:07:54;;;;;;;13.27;3.07;;;9.90;99.90;;;;;;5019456;28;20801;-74
2024/01/04 14:10:42;;;;;;;23.50;3.10;;;9.90;99.90;;;;;;5022158;28;20456;-74
2024/01/04 14:13:27;;;;;;;13.53;2.10;;;10.00;99.90;;;;;;5022512;28;20477;-74
2024/01/04 14:16:13;;;;;;;7.83;1.83;;;10.00;99.90;;;;;;5024594;28;20567;-74
2024/01/04 14:18:59;;;;;;;6.20;1.87;;;9.90;99.90;;;;;;5015454;28;20590;-74
2024/01/04 14:21:46;;;;;;;7.40;2.17;;;10.00;99.90;;;;;;5030053;28;20424;-74
2024/01/04 14:24:32;;;;;;;7.67;2.20;;;10.00;99.90;;;;;;5025447;28;20466;-74
2024/01/04 14:27:18;;;;;;;11.70;3.03;;;10.00;99.90;;;;;;5030253;28;20981;-74
2024/01/04 14:30:05;;;;;;;9.13;2.20;;;9.90;99.90;;;;;;5020292;28;20447;-74